Impacts TAF Board INFO
FOR SITUATIONAL AWARENESS. NOT TO BE USED FOR FLIGHT PLANNING PURPOSES.
IDs:

KLGA - New York/La Guardia, NY, US

Issued at 1341 UTC 21 Nov 2017
Updated at 1347 UTC 21 Nov 2017
Potential Impact None Slight Moderate High
Time1251Z 21/14Z 21/15Z 21/16Z 21/17Z 21/18Z 21/19Z 21/20Z 21/21Z 21/22Z 21/23Z 22/00Z 22/01Z 22/02Z>>
Type OBS PRVL PRVL PRVL PRVL PRVL PRVL PRVL PRVL PRVL PRVL PRVL PRVL PRVL
VIS 10 >6 >6 >6 >6 >6 >6 >6 >6 >6 >6 >6 >6 >6
CIG -- -- -- -- -- -- -- -- -- -- -- -- -- --
Cover SCT SCT SCT SCT SCT SCT SCT SCT SCT SCT SCT SCT SCT SCT
FltCat VFR VFR VFR VFR VFR VFR VFR VFR VFR VFR VFR VFR VFR VFR
WX -- -- -- -- -- -- -- -- -- -- -- -- -- --
WDir 210 210 210 210 210 210 210 210 210 210 210 210 210 210
WSpd 10 10 13 13 13 13 13 13 13 13 13 10 10 10
WGst -- -- 20 20 20 20 20 20 20 20 20 -- -- --

Raw TAF
KLGA 211341Z 2114/2212 21010KT P6SM SCT250
  FM211500 21013G20KT P6SM SCT250
  FM220000 21010KT P6SM SCT250
  FM220400 22007KT P6SM SCT020 BKN040
  FM220900 22006KT 5SM -RA BR OVC020


Raw METAR
KLGA 211251Z 21010KT 10SM FEW140 SCT250 08/M01 A3014 RMK AO2 SLP205 T00781006
KLGA 211151Z 21007KT 10SM SCT250 07/M02 A3013 RMK AO2 SLP202 T00671017 10072 20061 53004
KLGA 211051Z 23013KT 10SM SCT250 07/M01 A3012 RMK AO2 SLP200 T00671011

METAR Board
Radar Display
Forecast Discussion

FOR SITUATIONAL AWARENESS. NOT TO BE USED FOR FLIGHT PLANNING PURPOSES.